Time;durP1;ratioP1;P1;durP2;ratioP2;P2;SDS_P1;SDS_P2;PMS_P1;PMS_P2;Temp;Humidity;BMP_temperature;BMP_pressure;BME280_temperature;BME280_humidity;BME280_pressure;Samples;Min_cycle;Max_cycle;Signal;HPM_P1;HPM_P2
2022/05/27 00:01:32;;;;;;;17.95;3.17;;;14.20;99.90;;;;;;5089103;28;20487;-74
2022/05/27 00:04:00;;;;;;;22.40;3.70;;;14.20;99.90;;;;;;5105140;28;20043;-75
2022/05/27 00:06:27;;;;;;;14.38;3.50;;;14.10;99.90;;;;;;5089860;28;20118;-75
2022/05/27 00:08:53;;;;;;;13.75;3.17;;;14.00;99.90;;;;;;5108650;28;20410;-75
2022/05/27 00:11:22;;;;;;;19.65;4.53;;;14.00;99.90;;;;;;5102751;28;20060;-75
2022/05/27 00:13:49;;;;;;;16.13;3.80;;;13.90;99.90;;;;;;5107220;28;20088;-75
2022/05/27 00:16:15;;;;;;;16.80;3.63;;;13.90;99.90;;;;;;5099199;28;20066;-73
2022/05/27 00:18:41;;;;;;;24.10;4.82;;;13.80;99.90;;;;;;5076034;28;20051;-75
2022/05/27 00:21:07;;;;;;;14.35;3.08;;;13.80;99.90;;;;;;5083801;28;20471;-74
2022/05/27 00:23:34;;;;;;;16.98;3.72;;;13.70;99.90;;;;;;5101139;28;20095;-74
2022/05/27 00:26:00;;;;;;;14.02;4.10;;;13.70;99.90;;;;;;5080018;28;20504;-75
2022/05/27 00:28:26;;;;;;;24.42;4.45;;;13.70;99.90;;;;;;5081334;28;20036;-74
2022/05/27 00:30:52;;;;;;;18.35;3.53;;;13.60;99.90;;;;;;5086176;28;20039;-74
2022/05/27 00:33:19;;;;;;;16.67;4.38;;;13.60;99.90;;;;;;5106836;28;20028;-74
2022/05/27 00:35:44;;;;;;;17.67;4.00;;;13.60;99.90;;;;;;5107055;28;20112;-74
2022/05/27 00:38:10;;;;;;;20.88;4.55;;;13.60;99.90;;;;;;5087472;28;20035;-75
2022/05/27 00:40:42;;;;;;;18.17;3.78;;;13.60;99.90;;;;;;5077752;28;20127;-74
2022/05/27 00:43:08;;;;;;;20.40;4.07;;;13.50;99.90;;;;;;5107903;28;20274;-74
2022/05/27 00:45:36;;;;;;;9.98;3.63;;;13.50;99.90;;;;;;5103346;28;20039;-74
2022/05/27 00:48:06;;;;;;;18.30;4.55;;;13.40;99.90;;;;;;5104060;28;20039;-75
2022/05/27 00:50:36;;;;;;;15.25;3.42;;;13.40;99.90;;;;;;5090189;28;20028;-74
2022/05/27 00:53:03;;;;;;;18.33;3.83;;;13.30;99.90;;;;;;5103933;28;20094;-74
2022/05/27 00:55:33;;;;;;;16.85;3.60;;;13.20;99.90;;;;;;5093811;28;20070;-73
2022/05/27 00:58:09;;;;;;;18.88;3.85;;;13.20;99.90;;;;;;5109100;28;20050;-74
2022/05/27 01:00:36;;;;;;;20.50;4.30;;;13.20;99.90;;;;;;5105992;28;20372;-74
2022/05/27 01:03:04;;;;;;;19.55;4.60;;;13.10;99.90;;;;;;5105194;28;20039;-74
2022/05/27 01:05:29;;;;;;;17.58;3.10;;;13.10;99.90;;;;;;5073407;28;20040;-73
2022/05/27 01:08:00;;;;;;;16.63;3.85;;;13.10;99.90;;;;;;5088579;28;20100;-74
2022/05/27 01:10:27;;;;;;;18.00;3.40;;;13.00;99.90;;;;;;5086560;28;20066;-74
2022/05/27 01:13:37;;;;;;;20.52;4.70;;;13.00;99.90;;;;;;5104433;28;20071;-74
2022/05/27 01:16:05;;;;;;;12.60;2.90;;;13.00;99.90;;;;;;5024204;28;20044;-73
2022/05/27 01:21:36;;;;;;;12.70;4.10;;;12.90;99.90;;;;;;5103942;28;20194;-74
2022/05/27 01:24:08;;;;;;;15.43;3.50;;;12.80;99.90;;;;;;5099320;28;20574;-73
2022/05/27 01:26:51;;;;;;;15.82;3.42;;;12.80;99.90;;;;;;5108199;28;20047;-76
2022/05/27 01:29:34;;;;;;;21.02;3.95;;;12.70;99.90;;;;;;5096797;28;20325;-75
2022/05/27 01:32:24;;;;;;;19.65;3.90;;;12.70;99.90;;;;;;5087902;28;20498;-74
2022/05/27 01:35:15;;;;;;;15.48;3.40;;;12.70;99.90;;;;;;5103380;28;20093;-75
2022/05/27 01:38:13;;;;;;;12.82;3.83;;;12.60;99.90;;;;;;5087405;28;20043;-73
2022/05/27 01:41:09;;;;;;;16.38;3.97;;;12.60;99.90;;;;;;5077436;28;20510;-73
2022/05/27 01:43:52;;;;;;;16.33;3.80;;;12.60;99.90;;;;;;5072457;28;20058;-73
2022/05/27 01:46:33;;;;;;;17.63;3.65;;;12.60;99.90;;;;;;5085518;28;20048;-73
2022/05/27 01:49:18;;;;;;;16.40;3.63;;;12.60;99.90;;;;;;5079065;28;20047;-73
2022/05/27 01:51:59;;;;;;;12.30;2.75;;;12.60;99.90;;;;;;5108818;28;20096;-73
2022/05/27 01:54:33;;;;;;;19.02;3.17;;;12.60;99.90;;;;;;5100034;28;20056;-74
2022/05/27 01:57:15;;;;;;;15.43;3.00;;;12.60;99.90;;;;;;5092781;28;20040;-74
2022/05/27 01:59:46;;;;;;;15.00;3.85;;;12.60;99.90;;;;;;5101728;28;20047;-74
2022/05/27 02:02:17;;;;;;;19.42;3.08;;;12.60;99.90;;;;;;5091145;28;20047;-74
2022/05/27 02:04:48;;;;;;;20.70;3.42;;;12.50;99.90;;;;;;5092343;28;20102;-74
2022/05/27 02:07:26;;;;;;;13.43;4.25;;;12.50;99.90;;;;;;5103463;28;20083;-74
2022/05/27 02:10:00;;;;;;;18.77;3.28;;;12.50;99.90;;;;;;5107727;28;20044;-74
2022/05/27 02:12:42;;;;;;;16.35;3.17;;;12.50;99.90;;;;;;5084364;28;20047;-74
2022/05/27 02:15:32;;;;;;;15.15;2.92;;;12.40;99.90;;;;;;5088768;28;20051;-74
2022/05/27 02:18:04;;;;;;;14.98;3.55;;;12.40;99.90;;;;;;5100335;28;20040;-74
2022/05/27 02:20:36;;;;;;;13.50;3.10;;;12.40;99.90;;;;;;5081950;28;20044;-74
2022/05/27 02:23:12;;;;;;;23.60;3.33;;;12.30;99.90;;;;;;5086062;28;20136;-73
2022/05/27 02:25:43;;;;;;;20.27;3.45;;;12.30;99.90;;;;;;5083530;28;20051;-74
2022/05/27 02:28:24;;;;;;;15.30;3.08;;;12.20;99.90;;;;;;5102886;28;20035;-74
2022/05/27 02:30:56;;;;;;;17.38;3.33;;;12.20;99.90;;;;;;5086821;28;20039;-74
2022/05/27 02:36:23;;;;;;;16.70;3.22;;;12.10;99.90;;;;;;5082385;28;20308;-75
2022/05/27 02:38:49;;;;;;;12.75;2.92;;;12.10;99.90;;;;;;5083464;28;20067;-73
2022/05/27 02:41:20;;;;;;;15.90;3.83;;;12.10;99.90;;;;;;5096137;28;20461;-73
2022/05/27 02:44:07;;;;;;;16.88;3.40;;;12.00;99.90;;;;;;5101005;28;20123;-74
2022/05/27 02:46:48;;;;;;;19.10;4.18;;;12.00;99.90;;;;;;5086264;28;20035;-73
2022/05/27 02:49:18;;;;;;;9.60;3.17;;;11.90;99.90;;;;;;5100952;28;20043;-73
2022/05/27 02:51:55;;;;;;;13.88;3.90;;;11.90;99.90;;;;;;5103726;28;20513;-74
2022/05/27 02:54:55;;;;;;;17.52;3.95;;;11.90;99.90;;;;;;5101398;28;20052;-73
2022/05/27 02:57:30;;;;;;;18.33;3.90;;;11.90;99.90;;;;;;5098771;28;20055;-73
2022/05/27 02:59:58;;;;;;;22.00;4.40;;;11.90;99.90;;;;;;5100147;28;20084;-74
2022/05/27 03:02:23;;;;;;;14.48;3.80;;;11.90;99.90;;;;;;5098928;28;20312;-73
2022/05/27 03:04:58;;;;;;;16.77;4.35;;;11.80;99.90;;;;;;5086251;28;20189;-74
2022/05/27 03:07:56;;;;;;;20.35;3.72;;;11.70;99.90;;;;;;5104003;28;20495;-74
2022/05/27 03:10:28;;;;;;;15.75;3.88;;;11.70;99.90;;;;;;5091887;28;20048;-74
2022/05/27 03:13:44;;;;;;;14.90;4.00;;;11.60;99.90;;;;;;5105206;28;20123;-74
2022/05/27 03:16:35;;;;;;;15.50;3.65;;;11.60;99.90;;;;;;4989435;28;20410;-73
2022/05/27 03:19:06;;;;;;;16.90;4.55;;;11.60;99.90;;;;;;5085338;28;20036;-73
2022/05/27 03:21:58;;;;;;;18.08;4.22;;;11.50;99.90;;;;;;5083946;28;20086;-74
2022/05/27 03:24:36;;;;;;;18.48;4.72;;;11.50;99.90;;;;;;5058069;28;20729;-74
2022/05/27 03:27:15;;;;;;;12.18;3.30;;;11.50;99.90;;;;;;5099687;28;20495;-74
2022/05/27 03:30:09;;;;;;;12.55;3.13;;;11.50;99.90;;;;;;5083309;28;20101;-73
2022/05/27 03:32:48;;;;;;;16.35;3.55;;;11.50;99.90;;;;;;5084113;28;20502;-72
2022/05/27 03:35:21;;;;;;;18.33;3.58;;;11.50;99.90;;;;;;5083648;28;20040;-73
2022/05/27 03:38:04;;;;;;;14.98;4.15;;;11.50;99.90;;;;;;5102945;28;20498;-74
2022/05/27 03:40:38;;;;;;;15.85;3.53;;;11.50;99.90;;;;;;5081646;28;20162;-73
2022/05/27 03:43:04;;;;;;;12.73;3.40;;;11.60;99.90;;;;;;5091145;28;20126;-72
2022/05/27 03:45:30;;;;;;;14.15;2.65;;;11.60;99.90;;;;;;5107775;28;20177;-74
2022/05/27 03:47:56;;;;;;;10.30;2.90;;;11.60;99.90;;;;;;5089956;28;20039;-73
2022/05/27 03:50:24;;;;;;;13.40;2.80;;;11.70;99.90;;;;;;5086471;28;20586;-73
2022/05/27 03:52:53;;;;;;;17.30;3.83;;;11.60;99.90;;;;;;5092356;27;20172;-74
2022/05/27 03:55:24;;;;;;;19.10;4.28;;;11.70;99.90;;;;;;5092506;28;20521;-74
2022/05/27 03:57:49;;;;;;;13.20;3.05;;;11.70;99.90;;;;;;5088013;28;20040;-74
2022/05/27 04:00:16;;;;;;;15.40;2.75;;;11.60;99.90;;;;;;5098794;28;20033;-74
2022/05/27 04:02:43;;;;;;;13.65;2.83;;;11.70;99.90;;;;;;5080207;28;20040;-74
2022/05/27 04:05:18;;;;;;;14.07;3.33;;;11.70;99.90;;;;;;5107489;28;20039;-74
2022/05/27 04:07:45;;;;;;;14.15;3.08;;;11.80;99.90;;;;;;5090051;28;20050;-73
2022/05/27 04:10:11;;;;;;;11.63;3.05;;;11.80;99.90;;;;;;5088671;28;20050;-73
2022/05/27 04:12:37;;;;;;;19.50;3.03;;;11.80;99.90;;;;;;5089333;28;20035;-74
2022/05/27 04:15:05;;;;;;;11.93;2.97;;;11.80;99.90;;;;;;5082655;28;20056;-73
2022/05/27 04:17:30;;;;;;;16.83;2.95;;;11.80;99.90;;;;;;5081959;28;20185;-72
2022/05/27 04:20:18;;;;;;;15.50;3.22;;;11.90;99.90;;;;;;5107231;28;20616;-72
2022/05/27 04:22:44;;;;;;;12.88;2.90;;;12.00;99.90;;;;;;5106700;28;20040;-73
2022/05/27 04:25:11;;;;;;;16.67;2.90;;;12.10;99.90;;;;;;5105186;28;20050;-73
2022/05/27 04:27:37;;;;;;;11.25;3.05;;;12.20;99.90;;;;;;5085557;28;20031;-73
2022/05/27 04:30:07;;;;;;;13.80;3.08;;;12.30;99.90;;;;;;5073951;28;20040;-73
2022/05/27 04:32:32;;;;;;;10.05;2.45;;;12.40;99.90;;;;;;5081334;28;20506;-73
2022/05/27 04:34:58;;;;;;;16.27;3.38;;;12.40;99.90;;;;;;5105952;28;20096;-73
2022/05/27 04:37:24;;;;;;;23.55;3.67;;;12.40;99.90;;;;;;5086986;28;20475;-73
2022/05/27 04:39:50;;;;;;;16.77;3.47;;;12.40;99.90;;;;;;5086459;28;20043;-72
2022/05/27 04:42:16;;;;;;;17.27;3.25;;;12.40;99.90;;;;;;5094333;28;20046;-72
2022/05/27 04:44:42;;;;;;;16.70;3.63;;;12.30;99.90;;;;;;5107236;28;20138;-73
2022/05/27 04:47:08;;;;;;;14.07;3.13;;;12.30;99.90;;;;;;5077837;28;20134;-72
2022/05/27 04:49:51;;;;;;;15.25;3.58;;;12.30;99.90;;;;;;5085303;28;20084;-73
2022/05/27 04:52:17;;;;;;;14.73;3.40;;;12.30;99.90;;;;;;5089302;28;20173;-73
2022/05/27 04:54:46;;;;;;;14.00;3.55;;;12.30;99.90;;;;;;5086359;28;20047;-73
2022/05/27 04:57:16;;;;;;;20.15;3.42;;;12.30;99.90;;;;;;5090744;27;20534;-73
2022/05/27 04:59:42;;;;;;;16.35;3.15;;;12.20;99.90;;;;;;5073945;28;20517;-73
2022/05/27 05:02:07;;;;;;;13.73;2.95;;;12.20;99.90;;;;;;5083113;28;20051;-73
2022/05/27 05:04:33;;;;;;;18.75;3.15;;;12.30;99.90;;;;;;5087001;28;20047;-73
2022/05/27 05:07:04;;;;;;;13.02;2.60;;;12.20;99.90;;;;;;5083527;28;20032;-73
2022/05/27 05:09:30;;;;;;;18.38;2.85;;;12.30;99.90;;;;;;5098366;28;20035;-71
2022/05/27 05:11:56;;;;;;;24.35;3.45;;;12.40;99.90;;;;;;5085955;28;20494;-70
2022/05/27 05:14:22;;;;;;;15.65;3.20;;;12.50;99.90;;;;;;5106421;28;20048;-70
2022/05/27 05:16:48;;;;;;;16.15;3.25;;;12.70;99.90;;;;;;5089241;28;20044;-73
2022/05/27 05:19:14;;;;;;;14.88;3.45;;;12.80;99.90;;;;;;5088900;28;20085;-71
2022/05/27 05:21:39;;;;;;;15.95;3.78;;;12.80;99.90;;;;;;5084797;28;20289;-72
2022/05/27 05:24:05;;;;;;;11.48;2.55;;;12.80;99.90;;;;;;5100696;28;20258;-71
2022/05/27 05:26:31;;;;;;;23.15;4.20;;;12.80;99.90;;;;;;5087879;28;20060;-72
2022/05/27 05:28:56;;;;;;;18.98;4.30;;;12.80;99.90;;;;;;5091354;28;20564;-72
2022/05/27 05:31:22;;;;;;;17.42;3.40;;;12.80;99.90;;;;;;5105851;28;20070;-73
2022/05/27 05:33:48;;;;;;;17.02;3.85;;;12.90;99.90;;;;;;5106092;28;20101;-73
2022/05/27 05:36:13;;;;;;;17.08;3.17;;;12.90;99.90;;;;;;5090468;28;20155;-72
2022/05/27 05:38:39;;;;;;;19.83;2.90;;;12.90;99.90;;;;;;5086212;28;20047;-72
2022/05/27 05:41:05;;;;;;;18.35;3.40;;;13.00;99.90;;;;;;5089691;28;20551;-74
2022/05/27 05:43:32;;;;;;;13.38;3.15;;;13.00;99.90;;;;;;5093958;28;20043;-72
2022/05/27 05:45:58;;;;;;;17.15;3.85;;;13.00;99.90;;;;;;5109979;28;20051;-73
2022/05/27 05:48:24;;;;;;;16.63;3.50;;;13.00;99.90;;;;;;5106024;28;20097;-73
2022/05/27 05:50:49;;;;;;;17.08;4.07;;;13.20;99.90;;;;;;5108610;28;20044;-74
2022/05/27 05:53:18;;;;;;;16.85;3.38;;;13.30;99.90;;;;;;5089990;28;20047;-74
2022/05/27 05:55:46;;;;;;;19.80;3.55;;;13.40;99.90;;;;;;5078736;28;20495;-74
2022/05/27 05:58:12;;;;;;;11.20;3.15;;;13.60;99.90;;;;;;5109327;28;20429;-72
2022/05/27 06:00:37;;;;;;;13.27;2.67;;;13.80;99.90;;;;;;5108059;28;20514;-72
2022/05/27 06:03:03;;;;;;;22.42;3.15;;;13.90;99.90;;;;;;5083958;28;20058;-72
2022/05/27 06:05:29;;;;;;;12.00;2.83;;;13.90;99.90;;;;;;5088463;28;20398;-73
2022/05/27 06:07:56;;;;;;;19.30;3.38;;;14.00;99.90;;;;;;5098518;28;20055;-75
2022/05/27 06:10:22;;;;;;;11.70;3.22;;;14.10;99.90;;;;;;5102971;28;20036;-72
2022/05/27 06:12:48;;;;;;;13.68;2.92;;;14.20;99.90;;;;;;5099563;28;20035;-72
2022/05/27 06:15:14;;;;;;;13.52;3.05;;;14.30;99.90;;;;;;5085456;28;20044;-72
2022/05/27 06:17:40;;;;;;;18.60;3.58;;;14.30;99.90;;;;;;5107916;28;20104;-71
2022/05/27 06:20:09;;;;;;;11.85;3.30;;;14.30;99.90;;;;;;5079672;28;20428;-72
2022/05/27 06:22:35;;;;;;;18.80;3.40;;;14.30;99.90;;;;;;5084006;28;20515;-71
2022/05/27 06:25:01;;;;;;;13.80;2.97;;;14.30;99.90;;;;;;5098865;28;20039;-72
2022/05/27 06:27:27;;;;;;;15.75;3.05;;;14.40;99.90;;;;;;5076943;28;20400;-72
2022/05/27 06:35:21;;;;;;;16.38;3.05;;;14.60;99.90;;;;;;5101452;28;20140;-73
2022/05/27 06:37:48;;;;;;;14.98;3.40;;;14.70;99.90;;;;;;5103229;28;20047;-74
2022/05/27 06:40:17;;;;;;;14.88;3.83;;;14.80;99.90;;;;;;5082818;28;20441;-72
2022/05/27 06:42:44;;;;;;;14.57;2.95;;;14.90;99.90;;;;;;5085222;28;20047;-72
2022/05/27 06:45:13;;;;;;;17.83;4.00;;;14.90;99.90;;;;;;5102319;28;20038;-71
2022/05/27 06:47:39;;;;;;;16.20;3.35;;;14.90;99.90;;;;;;5100632;28;20467;-73
2022/05/27 06:50:05;;;;;;;14.30;2.63;;;15.00;99.90;;;;;;5084391;28;20038;-73
2022/05/27 06:52:32;;;;;;;12.77;2.97;;;15.10;99.90;;;;;;5104298;28;20507;-73
2022/05/27 06:54:57;;;;;;;16.35;2.75;;;15.20;99.90;;;;;;5079366;28;20051;-73
2022/05/27 06:57:26;;;;;;;14.60;2.85;;;15.30;99.90;;;;;;5054480;28;20047;-70
2022/05/27 06:59:52;;;;;;;12.05;2.97;;;15.30;99.90;;;;;;5076878;28;20044;-75
2022/05/27 07:02:22;;;;;;;18.02;3.85;;;15.40;99.90;;;;;;5086149;28;20036;-72
2022/05/27 07:04:48;;;;;;;12.18;3.25;;;15.20;99.90;;;;;;5095788;28;20483;-74
2022/05/27 07:07:14;;;;;;;18.38;4.28;;;14.90;99.90;;;;;;5080890;28;20090;-72
2022/05/27 07:09:39;;;;;;;12.43;3.00;;;14.80;99.90;;;;;;5096189;28;20081;-72
2022/05/27 07:12:08;;;;;;;14.93;2.53;;;14.70;99.90;;;;;;5101630;28;20131;-71
2022/05/27 07:14:34;;;;;;;9.93;2.72;;;14.70;99.90;;;;;;5078225;28;20036;-71
2022/05/27 07:17:00;;;;;;;17.23;2.80;;;14.90;99.90;;;;;;5102289;28;20048;-71
2022/05/27 07:19:27;;;;;;;17.58;3.17;;;14.90;99.90;;;;;;5099355;28;20043;-72
2022/05/27 07:21:56;;;;;;;18.67;4.05;;;14.70;99.90;;;;;;5097914;27;20093;-72
2022/05/27 07:24:22;;;;;;;19.33;3.75;;;14.40;99.90;;;;;;5097337;28;20048;-73
2022/05/27 07:26:48;;;;;;;28.52;4.15;;;14.40;99.90;;;;;;5084368;28;20181;-72
2022/05/27 07:29:14;;;;;;;14.50;2.85;;;14.50;99.90;;;;;;5100905;28;20085;-72
2022/05/27 07:31:43;;;;;;;12.90;3.28;;;14.70;99.90;;;;;;5097880;28;20139;-73
2022/05/27 07:34:10;;;;;;;15.02;3.53;;;14.90;99.90;;;;;;5103025;28;20048;-72
2022/05/27 07:36:36;;;;;;;15.85;4.10;;;15.00;99.90;;;;;;5094507;28;20537;-73
2022/05/27 07:39:03;;;;;;;17.75;2.88;;;15.20;99.90;;;;;;5095045;27;20048;-72
2022/05/27 07:41:30;;;;;;;15.10;3.05;;;15.40;99.90;;;;;;5081708;28;20445;-72
2022/05/27 07:43:59;;;;;;;17.48;2.95;;;15.40;99.90;;;;;;5099527;27;20044;-72
2022/05/27 07:46:25;;;;;;;17.27;3.20;;;15.30;99.90;;;;;;5072391;27;20059;-73
2022/05/27 07:48:51;;;;;;;17.08;3.17;;;15.20;99.90;;;;;;5099864;27;20035;-73
2022/05/27 07:51:17;;;;;;;14.68;2.85;;;15.10;99.90;;;;;;5100118;27;20035;-73
2022/05/27 07:53:46;;;;;;;13.93;3.72;;;15.00;99.90;;;;;;5093489;27;20047;-72
2022/05/27 07:56:11;;;;;;;16.05;3.40;;;15.10;99.90;;;;;;5098625;27;20035;-73
2022/05/27 07:58:37;;;;;;;17.20;3.55;;;15.30;99.90;;;;;;5076758;28;20052;-72
2022/05/27 08:01:04;;;;;;;17.60;3.20;;;15.30;99.90;;;;;;5094872;27;20735;-72
2022/05/27 08:03:30;;;;;;;16.15;2.63;;;15.40;99.90;;;;;;5076362;28;20048;-73
2022/05/27 08:05:59;;;;;;;14.65;3.33;;;15.70;99.90;;;;;;5076280;28;20043;-72
2022/05/27 08:08:25;;;;;;;12.93;3.25;;;15.90;99.90;;;;;;5098203;27;20108;-72
2022/05/27 08:10:52;;;;;;;15.73;3.95;;;16.00;99.90;;;;;;5102283;27;20044;-73
2022/05/27 08:13:18;;;;;;;17.05;3.40;;;16.00;99.90;;;;;;5099711;27;20032;-73
2022/05/27 08:15:44;;;;;;;19.45;3.63;;;16.10;99.90;;;;;;5098727;27;20040;-72
2022/05/27 08:18:10;;;;;;;16.35;3.05;;;16.20;99.90;;;;;;5095617;27;20379;-71
2022/05/27 08:20:39;;;;;;;12.82;2.95;;;16.10;99.90;;;;;;5101451;27;20054;-71
2022/05/27 08:23:05;;;;;;;17.10;3.20;;;16.00;99.90;;;;;;5099796;27;20047;-72
2022/05/27 08:25:32;;;;;;;15.13;3.22;;;16.10;99.90;;;;;;5080991;27;20092;-71
2022/05/27 08:27:59;;;;;;;13.77;2.95;;;15.80;99.90;;;;;;5078630;28;20873;-72
2022/05/27 08:30:28;;;;;;;14.85;3.25;;;15.90;99.90;;;;;;5096229;27;20058;-73
2022/05/27 08:32:55;;;;;;;12.43;2.85;;;15.90;99.90;;;;;;5075789;28;20069;-73
2022/05/27 08:38:12;;;;;;;11.75;2.90;;;16.30;99.90;;;;;;5078383;28;20048;-68
2022/05/27 08:40:48;;;;;;;10.45;3.20;;;16.60;99.90;;;;;;5079990;28;20040;-70
2022/05/27 08:43:17;;;;;;;15.23;3.40;;;16.50;99.90;;;;;;5096889;28;20135;-71
2022/05/27 08:46:06;;;;;;;13.23;3.22;;;16.50;99.90;;;;;;5078352;28;20075;-69
2022/05/27 08:48:38;;;;;;;14.38;3.70;;;16.50;99.90;;;;;;5073699;28;20565;-72
2022/05/27 08:51:17;;;;;;;13.77;3.60;;;16.30;99.90;;;;;;5079683;28;20031;-72
2022/05/27 08:54:20;;;;;;;20.42;3.35;;;16.40;99.90;;;;;;5101606;28;20486;-72
2022/05/27 08:59:40;;;;;;;14.82;3.63;;;16.40;99.90;;;;;;5080799;28;20502;-71
2022/05/27 09:02:41;;;;;;;13.50;2.85;;;16.20;99.90;;;;;;5096516;28;20070;-72
2022/05/27 09:05:16;;;;;;;11.68;3.17;;;16.20;99.90;;;;;;5100350;28;20121;-72
2022/05/27 09:07:56;;;;;;;13.13;3.22;;;16.30;99.90;;;;;;5076842;28;20313;-72
2022/05/27 09:10:51;;;;;;;14.75;3.03;;;16.40;99.90;;;;;;5100647;28;20670;-71
2022/05/27 09:13:34;;;;;;;15.40;3.42;;;16.40;99.90;;;;;;5106322;28;20277;-71
2022/05/27 09:16:18;;;;;;;;;;;16.40;99.90;;;;;;5080208;28;20050;-72
2022/05/27 09:19:04;;;;;;;;;;;16.30;99.90;;;;;;5081404;28;20398;-71
2022/05/27 09:21:52;;;;;;;14.70;4.10;;;16.30;99.90;;;;;;5094079;28;19934;-71
2022/05/27 09:24:32;;;;;;;14.30;3.15;;;16.30;99.90;;;;;;5097007;28;20043;-71
2022/05/27 09:27:08;;;;;;;15.55;3.13;;;16.10;99.90;;;;;;5100088;28;20561;-72
2022/05/27 09:29:59;;;;;;;13.38;2.67;;;16.10;99.90;;;;;;5081670;28;20079;-72
2022/05/27 09:32:38;;;;;;;14.73;3.65;;;16.30;99.90;;;;;;5084011;28;20040;-72
2022/05/27 09:35:10;;;;;;;10.43;3.03;;;16.30;99.90;;;;;;5101469;28;20044;-70
2022/05/27 09:37:40;;;;;;;16.90;3.08;;;16.20;99.90;;;;;;5080574;28;20044;-71
2022/05/27 09:40:15;;;;;;;11.18;2.70;;;16.20;99.90;;;;;;5104933;28;20509;-72
2022/05/27 09:43:01;;;;;;;12.27;2.60;;;16.40;99.90;;;;;;5104236;28;20047;-72
2022/05/27 09:45:29;;;;;;;10.35;2.47;;;16.50;99.90;;;;;;5082352;28;20043;-72
2022/05/27 09:48:00;;;;;;;15.18;2.67;;;16.80;99.90;;;;;;5101828;28;20071;-72
2022/05/27 09:50:40;;;;;;;14.82;3.08;;;17.00;99.90;;;;;;5083676;28;20670;-71
2022/05/27 09:53:06;;;;;;;14.40;2.88;;;16.80;99.90;;;;;;5101593;28;20040;-69
2022/05/27 09:55:43;;;;;;;12.13;3.08;;;16.70;99.90;;;;;;5084967;28;20051;-69
2022/05/27 09:58:09;;;;;;;12.13;3.00;;;16.40;99.90;;;;;;5084198;28;20039;-70
2022/05/27 10:00:51;;;;;;;12.55;2.63;;;16.20;99.90;;;;;;5103953;28;20059;-70
2022/05/27 10:03:29;;;;;;;13.38;2.50;;;16.30;99.90;;;;;;5093934;28;20036;-68
2022/05/27 10:05:57;;;;;;;14.20;3.15;;;16.50;99.90;;;;;;5093890;28;20043;-68
2022/05/27 10:08:28;;;;;;;13.65;2.95;;;16.70;99.90;;;;;;5095872;28;20048;-69
2022/05/27 10:11:07;;;;;;;16.35;3.50;;;16.60;99.90;;;;;;5090414;28;20643;-69
2022/05/27 10:13:34;;;;;;;15.43;3.53;;;16.20;99.90;;;;;;5087940;28;20406;-69
2022/05/27 10:16:11;;;;;;;18.02;2.90;;;16.00;99.90;;;;;;5093019;27;20099;-70
2022/05/27 10:18:42;;;;;;;19.63;3.80;;;16.20;99.90;;;;;;5101693;27;20044;-71
2022/05/27 10:21:18;;;;;;;20.73;3.15;;;16.20;99.90;;;;;;5095233;28;20035;-70
2022/05/27 10:23:55;;;;;;;16.92;3.17;;;16.00;99.90;;;;;;5098845;28;20047;-68
2022/05/27 10:26:27;;;;;;;14.98;3.92;;;16.00;99.90;;;;;;5096262;28;20428;-69
2022/05/27 10:29:19;;;;;;;16.63;3.17;;;16.30;99.90;;;;;;5099522;28;20134;-69
2022/05/27 10:31:53;;;;;;;16.38;3.70;;;16.30;99.90;;;;;;5075485;28;20070;-70
2022/05/27 10:34:51;;;;;;;14.98;3.10;;;16.40;99.90;;;;;;5096883;28;20055;-69
2022/05/27 10:37:53;;;;;;;14.20;3.67;;;16.20;99.90;;;;;;5089127;28;20116;-68
2022/05/27 10:40:27;;;;;;;11.80;2.42;;;16.10;99.90;;;;;;5085167;27;20043;-70
2022/05/27 10:43:13;;;;;;;15.18;3.05;;;16.00;99.90;;;;;;5087176;28;20048;-71
2022/05/27 10:45:43;;;;;;;16.17;3.67;;;15.90;99.90;;;;;;5099985;28;20036;-67
2022/05/27 10:48:37;;;;;;;17.73;3.65;;;16.10;99.90;;;;;;5100180;28;20040;-69
2022/05/27 10:51:23;;;;;;;21.48;4.75;;;16.30;99.90;;;;;;5083883;28;20088;-69
2022/05/27 10:53:54;;;;;;;20.15;3.70;;;16.50;99.90;;;;;;5101216;28;20104;-68
2022/05/27 10:56:32;;;;;;;18.75;4.00;;;16.30;99.90;;;;;;5104335;27;20608;-70
2022/05/27 11:02:38;;;;;;;18.65;3.65;;;16.00;99.90;;;;;;5099857;28;20048;-69
2022/05/27 11:05:46;;;;;;;12.15;2.40;;;16.00;99.90;;;;;;5036574;28;20058;-69
2022/05/27 11:08:25;;;;;;;18.38;2.92;;;15.90;99.90;;;;;;5071709;28;20078;-68
2022/05/27 11:11:10;;;;;;;16.33;2.72;;;15.90;99.90;;;;;;5102321;28;20043;-68
2022/05/27 11:17:04;;;;;;;13.10;3.47;;;15.60;99.90;;;;;;5084249;28;20479;-69
2022/05/27 11:19:44;;;;;;;12.57;3.85;;;15.60;99.90;;;;;;5102512;28;20048;-67
2022/05/27 11:22:22;;;;;;;17.73;3.47;;;15.50;99.90;;;;;;5080312;28;20032;-68
2022/05/27 11:25:09;;;;;;;16.40;3.88;;;15.70;99.90;;;;;;5074323;27;20417;-69
2022/05/27 11:27:41;;;;;;;11.25;3.35;;;15.80;99.90;;;;;;5081566;28;20039;-69
2022/05/27 11:30:16;;;;;;;18.43;3.93;;;15.90;99.90;;;;;;5100268;28;20044;-70
2022/05/27 11:33:03;;;;;;;16.42;3.08;;;15.90;99.90;;;;;;5099095;28;20621;-68
2022/05/27 11:35:58;;;;;;;21.13;4.32;;;15.70;99.90;;;;;;5078542;28;20108;-68
2022/05/27 11:38:27;;;;;;;19.52;3.53;;;15.70;99.90;;;;;;5081972;28;20145;-68
2022/05/27 11:41:22;;;;;;;17.25;3.15;;;15.70;99.90;;;;;;5081713;28;20058;-68
2022/05/27 11:44:03;;;;;;;16.50;3.22;;;15.70;99.90;;;;;;5076472;28;20039;-69
2022/05/27 11:46:51;;;;;;;15.50;3.53;;;15.70;99.90;;;;;;5098764;28;20051;-68
2022/05/27 11:49:56;;;;;;;20.10;3.08;;;15.70;99.90;;;;;;5084963;28;20391;-69
2022/05/27 11:52:32;;;;;;;16.08;3.78;;;15.60;99.90;;;;;;5101787;28;20040;-66
2022/05/27 11:55:19;;;;;;;17.13;4.15;;;15.40;99.90;;;;;;5079470;28;20138;-68
2022/05/27 11:57:59;;;;;;;12.50;3.08;;;15.40;99.90;;;;;;5100668;28;20040;-68
2022/05/27 12:00:29;;;;;;;15.60;2.88;;;15.40;99.90;;;;;;5102635;28;20063;-69
2022/05/27 12:03:13;;;;;;;11.95;3.08;;;15.60;99.90;;;;;;5102304;28;20035;-69
2022/05/27 12:05:54;;;;;;;15.07;3.58;;;15.60;99.90;;;;;;5080031;28;20039;-70
2022/05/27 12:08:44;;;;;;;15.93;3.22;;;15.80;99.90;;;;;;5100007;28;20040;-69
2022/05/27 12:11:34;;;;;;;17.00;3.45;;;15.70;99.90;;;;;;5084888;28;20066;-69
2022/05/27 12:14:14;;;;;;;15.80;3.30;;;15.50;99.90;;;;;;5083652;28;20035;-69
2022/05/27 12:16:42;;;;;;;19.65;3.88;;;15.50;99.90;;;;;;5104647;28;20104;-67
2022/05/27 12:19:18;;;;;;;15.88;3.25;;;15.40;99.90;;;;;;5081146;28;20059;-68
2022/05/27 12:21:52;;;;;;;17.25;3.75;;;15.40;99.90;;;;;;5081706;28;20048;-67
2022/05/27 12:24:21;;;;;;;19.20;3.38;;;15.20;99.90;;;;;;5086941;28;20138;-67
2022/05/27 12:26:50;;;;;;;17.08;3.55;;;15.20;99.90;;;;;;5099685;28;20506;-67
2022/05/27 12:29:17;;;;;;;15.40;3.15;;;15.10;99.90;;;;;;5073588;28;20068;-67
2022/05/27 12:31:44;;;;;;;16.88;3.33;;;15.00;99.90;;;;;;5086675;28;20047;-67
2022/05/27 12:34:28;;;;;;;21.13;4.28;;;14.90;99.90;;;;;;5104583;28;20580;-66
2022/05/27 12:37:17;;;;;;;17.80;3.70;;;14.90;99.90;;;;;;5103392;28;20609;-67
2022/05/27 12:39:44;;;;;;;15.80;3.55;;;14.90;99.90;;;;;;5076475;28;20494;-67
2022/05/27 12:42:17;;;;;;;20.77;4.18;;;15.00;99.90;;;;;;5088307;28;20042;-66
2022/05/27 12:44:44;;;;;;;16.38;3.47;;;15.10;99.90;;;;;;5093236;28;20048;-67
2022/05/27 12:47:17;;;;;;;17.00;4.10;;;15.20;99.90;;;;;;5081254;28;20035;-68
2022/05/27 12:49:47;;;;;;;16.70;3.50;;;15.20;99.90;;;;;;5099088;28;20059;-68
2022/05/27 12:52:28;;;;;;;14.80;2.90;;;15.30;99.90;;;;;;5084716;28;20574;-67
2022/05/27 12:54:54;;;;;;;17.38;3.25;;;15.30;99.90;;;;;;5083462;28;20063;-69
2022/05/27 13:03:33;;;;;;;16.40;3.97;;;15.40;99.90;;;;;;5102131;28;20031;-71
2022/05/27 13:06:19;;;;;;;14.05;3.22;;;15.50;99.90;;;;;;5097780;28;20041;-69
2022/05/27 13:08:49;;;;;;;16.05;2.92;;;15.60;99.90;;;;;;5106208;28;20040;-68
2022/05/27 13:11:21;;;;;;;19.83;3.67;;;15.60;99.90;;;;;;5102038;28;21502;-68
2022/05/27 13:13:47;;;;;;;16.70;4.03;;;15.60;99.90;;;;;;5102107;28;20055;-68
2022/05/27 13:16:31;;;;;;;15.27;3.53;;;15.50;99.90;;;;;;5097602;28;20046;-68
2022/05/27 13:19:04;;;;;;;15.52;3.05;;;15.50;99.90;;;;;;5102984;28;20051;-67
2022/05/27 13:21:53;;;;;;;16.70;2.85;;;15.30;99.90;;;;;;5099504;28;20055;-68
2022/05/27 13:24:19;;;;;;;17.10;4.10;;;15.20;99.90;;;;;;5103434;28;20112;-68
2022/05/27 13:27:14;;;;;;;18.73;3.90;;;15.10;99.90;;;;;;5098491;28;20040;-68
2022/05/27 13:29:54;;;;;;;17.38;3.92;;;15.00;99.90;;;;;;5100959;28;20131;-68
2022/05/27 13:32:29;;;;;;;20.13;4.13;;;14.90;99.90;;;;;;5077811;28;20043;-67
2022/05/27 13:34:57;;;;;;;13.02;3.00;;;14.90;99.90;;;;;;5082387;28;20114;-68
2022/05/27 13:37:55;;;;;;;15.88;3.17;;;14.90;99.90;;;;;;5082856;28;20043;-68
2022/05/27 13:40:30;;;;;;;14.25;3.33;;;15.00;99.90;;;;;;5080217;28;20039;-67